.
WxDataArchive / Data Records for 2013-10-04
2013-10-03 October 2013 2013-10-05

Data Records for Friday, 04 October 2013

Time	Temp	Chill	HIndex	Humid	Dewpt	 Wind 	HiWind	WindDir	Rain 	Barom 
-----	----	-----	------	-----	-----	------	------	-------	-----	----- 
00:00	70.9	70.9	70.9	77	63.3	0	1	338	0.00	29.958 
00:05	70.9	70.9	70.9	77	63.3	0	1	338	0.00	29.958 
00:10	70.8	70.8	70.8	77	63.2	0	0	---	0.00	29.958 
00:15	70.4	70.4	70.4	78	63.2	0	0	---	0.00	29.957 
00:20	70.3	70.3	70.3	78	63.1	0	1	338	0.00	29.957 
00:25	69.9	69.9	69.9	79	63.1	0	0	---	0.00	29.957 
00:30	69.8	69.8	69.8	79	63.0	0	1	338	0.00	29.952 
00:35	69.4	69.4	69.4	80	63.0	0	0	---	0.00	29.952 
00:40	69.3	69.3	69.3	81	63.2	0	1	338	0.00	29.952 
00:45	69.1	69.1	69.1	81	63.0	0	2	338	0.00	29.951 
00:50	69.1	69.1	69.1	81	63.0	0	0	---	0.00	29.951 
00:55	68.9	68.9	68.9	82	63.2	0	1	338	0.00	29.951 
01:00	68.9	68.9	68.9	82	63.2	0	1	338	0.00	29.943 
01:05	68.9	68.9	68.9	82	63.2	0	1	338	0.00	29.943 
01:10	68.9	68.9	68.9	83	63.5	0	1	338	0.00	29.943 
01:15	69.1	69.1	69.1	83	63.7	0	1	338	0.00	29.937 
01:20	69.3	69.3	69.3	83	63.9	0	1	338	0.00	29.937 
01:25	69.4	69.4	69.4	82	63.7	0	2	315	0.00	29.937 
01:30	69.6	69.6	69.6	82	63.9	0	1	315	0.00	29.939 
01:35	69.6	69.6	69.6	82	63.9	0	1	315	0.00	29.939 
01:40	69.6	69.6	69.6	82	63.9	0	1	315	0.00	29.939 
01:45	69.6	69.6	69.6	82	63.9	0	1	315	0.00	29.937 
01:50	69.6	69.6	69.6	82	63.9	0	1	315	0.00	29.937 
01:55	69.6	69.6	69.6	82	63.9	0	2	225	0.00	29.937 
02:00	69.4	69.4	69.4	82	63.7	0	1	225	0.00	29.942 
02:05	69.4	69.4	69.4	82	63.7	0	1	225	0.00	29.942 
02:10	69.3	69.3	69.3	82	63.6	0	0	---	0.00	29.942 
02:15	69.1	69.1	69.1	83	63.7	0	1	225	0.00	29.945 
02:20	68.9	68.9	68.9	83	63.5	0	1	225	0.00	29.945 
02:25	68.9	68.9	68.9	83	63.5	0	1	225	0.00	29.945 
02:30	68.8	68.8	68.8	84	63.8	0	1	225	0.00	29.939 
02:35	68.6	68.6	68.6	84	63.6	0	1	225	0.00	29.939 
02:40	68.6	68.6	68.6	84	63.6	0	1	225	0.00	29.939 
02:45	68.8	68.8	68.8	84	63.8	0	1	225	0.00	29.935 
02:50	68.8	68.8	68.8	85	64.1	0	2	315	0.00	29.935 
02:55	69.1	69.1	69.1	84	64.1	0	3	292	0.00	29.935 
03:00	69.3	69.3	69.3	84	64.2	0	1	292	0.00	29.943 
03:05	69.3	69.3	69.3	84	64.2	0	2	270	0.00	29.943 
03:10	69.3	69.3	69.3	84	64.2	0	3	338	0.00	29.943 
03:15	69.3	69.3	69.3	84	64.2	0	1	248	0.00	29.944 
03:20	69.4	69.4	69.4	84	64.3	0	3	248	0.00	29.944 
03:25	69.4	69.4	69.4	84	64.3	0	2	248	0.00	29.944 
03:30	69.6	69.6	69.6	84	64.5	0	2	248	0.00	29.947 
03:35	69.6	69.6	69.6	84	64.5	0	1	248	0.00	29.947 
03:40	69.6	69.6	69.6	84	64.5	0	1	248	0.00	29.947 
03:45	69.6	69.6	69.6	84	64.5	0	2	248	0.00	29.948 
03:50	69.6	69.6	69.6	84	64.5	0	1	248	0.00	29.948 
03:55	69.6	69.6	69.6	84	64.5	0	2	248	0.00	29.948 
04:00	69.6	69.6	69.6	84	64.5	0	2	248	0.00	29.948 
04:05	69.6	69.6	69.6	84	64.5	0	1	248	0.00	29.948 
04:10	69.6	69.6	69.6	84	64.5	0	1	248	0.00	29.948 
04:15	69.6	69.6	69.6	84	64.5	0	1	248	0.00	29.950 
04:20	69.4	69.4	69.4	84	64.3	0	1	248	0.00	29.950 
04:25	69.4	69.4	69.4	84	64.3	0	0	---	0.00	29.950 
04:30	69.3	69.3	69.3	84	64.2	0	1	248	0.00	29.952 
04:35	69.1	69.1	69.1	84	64.1	0	1	248	0.00	29.952 
04:40	69.1	69.1	69.1	85	64.4	0	1	248	0.00	29.952 
04:45	69.1	69.1	69.1	85	64.4	0	1	248	0.00	29.950 
04:50	69.1	69.1	69.1	85	64.4	0	3	248	0.00	29.950 
04:55	69.1	69.1	69.1	85	64.4	0	1	248	0.00	29.950 
05:00	68.9	68.9	68.9	85	64.2	0	1	248	0.00	29.951 
05:05	68.9	68.9	68.9	85	64.2	0	1	248	0.00	29.951 
05:10	68.9	68.9	68.9	85	64.2	0	1	248	0.00	29.951 
05:15	68.9	68.9	68.9	86	64.5	0	1	248	0.00	29.956 
05:20	68.8	68.8	68.8	86	64.4	0	0	---	0.00	29.956 
05:25	68.8	68.8	68.8	86	64.4	0	0	---	0.00	29.956 
05:30	68.8	68.8	68.8	86	64.4	0	1	248	0.00	29.961 
05:35	68.8	68.8	68.8	86	64.4	0	0	---	0.00	29.961 
05:40	68.8	68.8	68.8	86	64.4	0	0	---	0.00	29.961 
05:45	68.6	68.6	68.6	86	64.2	0	0	---	0.00	29.966 
05:50	68.6	68.6	68.6	86	64.2	0	0	---	0.00	29.966 
05:55	68.6	68.6	68.6	86	64.2	0	0	---	0.00	29.966 
06:00	68.4	68.4	68.4	87	64.4	0	0	---	0.00	29.966 
06:05	68.4	68.4	68.4	87	64.4	0	0	---	0.00	29.966 
06:10	68.4	68.4	68.4	87	64.4	0	0	---	0.00	29.966 
06:15	68.3	68.3	68.3	87	64.3	0	1	248	0.00	29.975 
06:20	68.3	68.3	68.3	87	64.3	0	1	248	0.00	29.975 
06:25	68.3	68.3	68.3	87	64.3	0	0	---	0.00	29.975 
06:30	68.3	68.3	68.3	87	64.3	0	0	---	0.00	29.978 
06:35	68.1	68.1	68.1	88	64.4	0	1	248	0.00	29.978 
06:40	68.1	68.1	68.1	88	64.4	0	1	248	0.00	29.978 
06:45	68.3	68.3	68.3	88	64.6	0	1	248	0.00	29.980 
06:50	68.3	68.3	68.3	88	64.6	0	0	---	0.00	29.980 
06:55	68.3	68.3	68.3	88	64.6	0	0	---	0.00	29.980 
07:00	68.3	68.3	68.3	87	64.3	0	1	248	0.00	29.982 
07:05	68.3	68.3	68.3	87	64.3	0	1	248	0.00	29.982 
07:10	68.3	68.3	68.3	87	64.3	0	1	248	0.00	29.982 
07:15	68.3	68.3	68.3	87	64.3	0	1	248	0.00	29.987 
07:20	68.3	68.3	68.3	87	64.3	0	0	---	0.00	29.987 
07:25	68.3	68.3	68.3	87	64.3	0	1	248	0.00	29.987 
07:30	68.3	68.3	68.3	88	64.6	0	0	---	0.00	29.989 
07:35	68.3	68.3	68.3	88	64.6	0	1	248	0.00	29.989 
07:40	68.3	68.3	68.3	88	64.6	0	0	---	0.00	29.989 
07:45	68.1	68.1	68.1	88	64.4	0	0	---	0.00	29.990 
07:50	68.1	68.1	68.1	88	64.4	0	0	---	0.00	29.990 
07:55	68.1	68.1	68.1	88	64.4	0	0	---	0.00	29.990 
08:00	68.1	68.1	68.1	88	64.4	0	0	---	0.00	29.998 
08:05	68.1	68.1	68.1	88	64.4	0	0	---	0.00	29.998 
08:10	68.1	68.1	68.1	88	64.4	0	0	---	0.00	29.998 
08:15	68.1	68.1	68.1	88	64.4	0	0	---	0.00	30.001 
08:20	68.1	68.1	68.1	88	64.4	0	0	---	0.00	30.001 
08:25	68.1	68.1	68.1	88	64.4	0	0	---	0.00	30.001 
08:30	68.1	68.1	68.1	89	64.7	0	1	248	0.00	30.000 
08:35	68.1	68.1	68.1	89	64.7	0	0	---	0.00	30.000 
08:40	68.3	68.3	68.3	89	64.9	0	0	---	0.00	30.000 
08:45	68.4	68.4	68.4	88	64.7	0	1	248	0.00	29.997 
08:50	68.4	68.4	68.4	89	65.0	0	1	248	0.00	29.997 
08:55	68.6	68.6	68.6	88	64.9	0	0	---	0.00	29.997 
09:00	68.6	68.6	68.6	88	64.9	0	1	248	0.00	29.996 
09:05	68.8	68.8	68.8	88	65.1	0	1	248	0.00	29.996 
09:10	68.8	68.8	68.8	88	65.1	0	1	248	0.00	29.996 
09:15	68.8	68.8	68.8	88	65.1	0	1	248	0.00	30.000 
09:20	68.9	68.9	68.9	88	65.2	0	1	248	0.00	30.000 
09:25	69.3	69.3	69.3	87	65.3	0	1	248	0.00	30.000 
09:30	69.6	69.6	69.6	87	65.6	0	1	248	0.00	30.000 
09:35	69.9	69.9	69.9	86	65.5	0	2	248	0.00	30.000 
09:40	70.3	70.3	70.3	85	65.6	0	1	248	0.00	30.000 
09:45	70.6	70.6	70.6	84	65.5	0	1	248	0.00	29.999 
09:50	70.9	70.9	70.9	84	65.8	0	1	248	0.00	29.999 
09:55	71.5	71.5	71.5	83	66.1	0	2	248	0.00	29.999 
10:00	72.0	72.0	72.0	81	65.8	0	4	315	0.00	30.000 
10:05	72.3	72.3	72.3	80	65.8	0	4	270	0.00	30.000 
10:10	72.5	72.5	72.5	79	65.6	0	2	270	0.00	30.000 
10:15	72.7	72.7	72.7	79	65.8	0	2	315	0.00	30.000 
10:20	72.7	72.7	72.7	79	65.8	0	1	315	0.00	30.000 
10:25	73.0	73.0	73.0	79	66.1	0	2	315	0.00	30.000 
10:30	73.7	73.7	73.7	78	66.4	0	2	315	0.00	29.998 
10:35	74.4	74.4	74.4	77	66.7	1	2	315	0.00	29.998 
10:40	74.9	74.9	74.9	75	66.4	1	2	315	0.00	29.998 
10:45	75.4	75.4	76.7	74	66.5	1	2	315	0.00	29.996 
10:50	75.8	75.8	77.3	73	66.5	1	2	315	0.00	29.996 
10:55	76.1	76.1	77.7	72	66.4	1	3	315	0.00	29.996 
11:00	76.7	76.7	78.4	72	67.0	1	2	315	0.00	29.995 
11:05	76.7	76.7	78.4	72	67.0	1	3	270	0.00	29.995 
11:10	76.8	76.8	78.5	71	66.7	1	3	270	0.00	29.995 
11:15	77.0	77.0	78.8	71	66.9	1	3	270	0.00	29.994 
11:20	77.2	77.2	79.0	71	67.0	1	3	270	0.00	29.994 
11:25	77.7	77.7	79.7	71	67.5	1	3	270	0.00	29.994 
11:30	77.7	77.7	79.6	69	66.7	1	4	270	0.00	29.993 
11:35	77.9	77.9	79.9	70	67.3	1	2	270	0.00	29.993 
11:40	78.5	78.5	80.7	70	67.9	1	2	270	0.00	29.993 
11:45	78.6	78.6	80.8	69	67.6	1	3	270	0.00	29.990 
11:50	78.8	78.8	81.1	69	67.7	0	2	270	0.00	29.990 
11:55	79.2	79.2	81.6	69	68.1	1	4	270	0.00	29.990 
12:00	80.1	80.1	82.9	68	68.6	0	2	315	0.00	29.983 
12:05	80.9	80.9	83.8	66	68.4	1	3	248	0.00	29.983 
12:10	81.1	81.1	84.1	66	68.6	1	4	248	0.00	29.983 
12:15	81.2	81.2	84.0	64	67.8	1	3	248	0.00	29.982 
12:20	81.1	81.1	83.8	64	67.7	1	3	248	0.00	29.982 
12:25	80.9	80.9	83.5	64	67.6	0	3	248	0.00	29.982 
12:30	80.7	80.7	83.2	64	67.4	0	2	248	0.00	29.980 
12:35	80.9	80.9	83.7	65	68.0	1	3	248	0.00	29.980 
12:40	81.2	81.2	84.0	64	67.8	0	2	0	0.00	29.980 
12:45	81.1	81.1	83.6	63	67.3	1	3	315	0.00	29.983 
12:50	80.7	80.7	83.2	64	67.4	0	2	315	0.00	29.983 
12:55	80.9	80.9	83.5	64	67.6	0	2	315	0.00	29.983 
13:00	81.2	81.2	83.8	63	67.4	1	2	315	0.00	29.983 
13:05	81.8	81.8	84.5	62	67.5	1	2	315	0.00	29.983 
13:10	82.8	82.8	85.8	61	67.9	1	5	315	0.00	29.983 
13:15	83.6	83.6	86.4	58	67.2	1	3	45	0.00	29.977 
13:20	84.0	84.0	86.7	57	67.1	1	3	22	0.00	29.977 
13:25	83.8	83.8	86.7	58	67.4	0	2	270	0.00	29.977 
13:30	83.0	83.0	85.5	58	66.7	1	3	270	0.00	29.974 
13:35	82.2	82.2	84.7	60	66.9	1	3	270	0.00	29.974 
13:40	81.4	81.4	83.9	62	67.1	1	3	270	0.00	29.974 
13:45	81.2	81.2	83.6	62	66.9	1	2	270	0.00	29.966 
13:50	81.4	81.4	83.8	61	66.6	1	3	270	0.00	29.966 
13:55	81.6	81.6	84.0	61	66.8	1	4	292	0.00	29.966 
14:00	81.8	81.8	84.3	61	67.0	1	3	292	0.00	29.961 
14:05	82.0	82.0	85.0	63	68.1	2	4	270	0.00	29.961 
14:10	82.0	82.0	84.8	62	67.7	2	4	270	0.00	29.961 
14:15	82.0	82.0	84.8	62	67.7	2	4	270	0.00	29.952 
14:20	82.6	82.6	85.7	62	68.2	1	4	292	0.00	29.952 
14:25	83.0	83.0	85.9	60	67.7	1	2	292	0.00	29.952 
14:30	83.2	83.2	85.8	58	66.9	1	3	292	0.00	29.947 
14:35	83.6	83.6	86.6	59	67.7	1	4	292	0.00	29.947 
14:40	83.2	83.2	85.8	58	66.9	1	4	270	0.00	29.947 
14:45	82.6	82.6	85.1	59	66.8	2	5	292	0.00	29.948 
14:50	82.4	82.4	84.6	58	66.1	1	4	292	0.00	29.948 
14:55	82.4	82.4	84.8	59	66.6	1	3	292	0.00	29.948 
15:00	82.6	82.6	84.9	58	66.3	1	3	292	0.00	29.947 
15:05	83.6	83.6	86.1	57	66.7	1	3	292	0.00	29.947 
15:10	83.8	83.8	86.0	55	65.9	1	3	292	0.00	29.947 
15:15	83.6	83.6	86.1	57	66.7	0	3	270	0.00	29.945 
15:20	82.8	82.8	84.0	52	63.3	1	3	270	0.00	29.945 
15:25	81.1	81.1	82.3	54	62.9	1	5	338	0.00	29.945 
15:30	78.8	78.8	80.3	58	62.8	2	5	315	0.00	29.964 
15:35	77.6	77.6	79.3	61	63.1	2	5	338	0.00	29.964 
15:40	76.7	76.7	78.5	64	63.6	1	5	315	0.00	29.964 
15:45	75.8	75.8	77.6	67	64.0	1	3	315	0.00	29.969 
15:50	75.3	75.3	77.0	69	64.4	1	4	315	0.00	29.969 
15:55	74.9	74.9	74.9	71	64.8	0	2	315	0.00	29.969 
16:00	74.7	74.7	74.7	73	65.5	0	1	315	0.00	29.968 
16:05	74.2	74.2	74.2	75	65.8	0	2	315	0.00	29.968 
16:10	73.9	73.9	73.9	78	66.6	0	2	315	0.01	29.968 
16:15	73.3	73.3	73.3	80	66.7	0	2	315	0.01	29.970 
16:20	72.7	72.7	72.7	83	67.2	0	3	315	0.04	29.970 
16:25	71.3	71.3	71.3	83	65.9	0	1	0	0.02	29.970 
16:30	69.9	69.9	69.9	83	64.5	1	4	0	0.03	29.976 
16:35	68.9	68.9	68.9	83	63.5	0	3	0	0.02	29.976 
16:40	68.8	68.8	68.8	85	64.1	1	3	90	0.00	29.976 
16:45	68.3	68.3	68.3	86	63.9	1	3	270	0.00	29.990 
16:50	68.1	68.1	68.1	87	64.1	0	1	270	0.04	29.990 
16:55	68.1	68.1	68.1	89	64.7	1	3	270	0.09	29.990 
17:00	68.1	68.1	68.1	91	65.4	1	3	112	0.01	29.979 
17:05	68.4	68.4	68.4	92	66.0	1	5	90	0.01	29.979 
17:10	68.9	68.9	68.9	92	66.5	1	3	90	0.00	29.979 
17:15	69.3	69.3	69.3	93	67.2	1	3	90	0.00	29.966 
17:20	69.6	69.6	69.6	93	67.5	0	1	90	0.00	29.966 
17:25	69.8	69.8	69.8	93	67.7	0	1	90	0.00	29.966 
17:30	70.1	70.1	70.1	92	67.7	0	1	90	0.00	29.964 
17:35	70.3	70.3	70.3	92	67.9	0	0	---	0.00	29.964 
17:40	70.6	70.6	70.6	92	68.2	0	1	90	0.00	29.964 
17:45	70.9	70.9	70.9	92	68.5	1	3	90	0.00	29.967 
17:50	71.1	71.1	71.1	91	68.3	1	3	112	0.00	29.967 
17:55	71.1	71.1	71.1	91	68.3	0	1	112	0.00	29.967 
18:00	71.1	71.1	71.1	91	68.3	0	0	---	0.00	29.959 
18:05	71.1	71.1	71.1	90	68.0	0	1	112	0.00	29.959 
18:10	70.9	70.9	70.9	89	67.5	0	4	112	0.00	29.959 
18:15	70.8	70.8	70.8	88	67.1	0	2	112	0.00	29.956 
18:20	70.9	70.9	70.9	88	67.2	0	0	---	0.00	29.956 
18:25	70.9	70.9	70.9	87	66.8	0	0	---	0.00	29.956 
18:30	70.9	70.9	70.9	88	67.2	0	0	---	0.00	29.957 
18:35	70.8	70.8	70.8	87	66.7	0	0	---	0.00	29.957 
18:40	70.8	70.8	70.8	88	67.1	0	0	---	0.00	29.957 
18:45	70.8	70.8	70.8	88	67.1	0	0	---	0.00	29.963 
18:50	70.6	70.6	70.6	88	66.9	0	0	---	0.00	29.963 
18:55	70.4	70.4	70.4	89	67.0	0	0	---	0.00	29.963 
19:00	70.3	70.3	70.3	89	66.9	0	0	---	0.00	29.967 
19:05	70.1	70.1	70.1	89	66.7	0	0	---	0.00	29.967 
19:10	69.9	69.9	69.9	90	66.8	0	0	---	0.00	29.967 
19:15	69.9	69.9	69.9	90	66.8	0	0	---	0.00	29.971 
19:20	69.8	69.8	69.8	90	66.7	0	1	112	0.00	29.971 
19:25	69.6	69.6	69.6	90	66.5	0	1	112	0.00	29.971 
19:30	69.6	69.6	69.6	90	66.5	0	1	112	0.00	29.974 
19:35	69.6	69.6	69.6	91	66.8	0	1	112	0.00	29.974 
19:40	69.6	69.6	69.6	91	66.8	0	1	112	0.00	29.974 
19:45	69.4	69.4	69.4	91	66.7	0	1	112	0.00	29.978 
19:50	69.4	69.4	69.4	91	66.7	0	0	---	0.00	29.978 
19:55	69.4	69.4	69.4	91	66.7	0	2	112	0.00	29.978 
20:00	69.4	69.4	69.4	91	66.7	0	1	112	0.00	29.977 
20:05	69.6	69.6	69.6	91	66.8	0	5	112	0.00	29.977 
20:10	69.6	69.6	69.6	90	66.5	1	5	135	0.00	29.977 
20:15	69.4	69.4	69.4	91	66.7	0	3	90	0.00	29.977 
20:20	69.4	69.4	69.4	91	66.7	0	2	90	0.00	29.977 
20:25	69.3	69.3	69.3	91	66.6	1	4	90	0.00	29.977 
20:30	69.3	69.3	69.3	91	66.6	0	1	90	0.00	29.982 
20:35	69.3	69.3	69.3	91	66.6	0	3	90	0.00	29.982 
20:40	69.1	69.1	69.1	91	66.4	0	2	90	0.00	29.982 
20:45	69.1	69.1	69.1	91	66.4	0	1	90	0.00	29.985 
20:50	69.1	69.1	69.1	91	66.4	0	3	90	0.00	29.985 
20:55	68.9	68.9	68.9	92	66.5	0	2	90	0.00	29.985 
21:00	68.9	68.9	68.9	92	66.5	0	1	90	0.00	29.986 
21:05	68.8	68.8	68.8	92	66.4	0	2	90	0.00	29.986 
21:10	68.8	68.8	68.8	92	66.4	0	2	90	0.00	29.986 
21:15	68.6	68.6	68.6	92	66.2	0	2	90	0.00	29.984 
21:20	68.6	68.6	68.6	92	66.2	0	2	90	0.00	29.984 
21:25	68.4	68.4	68.4	92	66.0	0	1	90	0.00	29.984 
21:30	68.4	68.4	68.4	92	66.0	0	0	---	0.00	29.985 
21:35	68.3	68.3	68.3	92	65.9	0	1	90	0.00	29.985 
21:40	68.3	68.3	68.3	92	65.9	0	1	90	0.00	29.985 
21:45	68.3	68.3	68.3	92	65.9	0	1	90	0.00	29.986 
21:50	68.3	68.3	68.3	92	65.9	0	1	90	0.00	29.986 
21:55	68.3	68.3	68.3	92	65.9	0	1	90	0.00	29.986 
22:00	68.4	68.4	68.4	92	66.0	0	1	90	0.00	29.989 
22:05	68.4	68.4	68.4	92	66.0	0	2	90	0.00	29.989 
22:10	68.4	68.4	68.4	92	66.0	0	0	---	0.00	29.989 
22:15	68.4	68.4	68.4	92	66.0	0	1	90	0.00	29.992 
22:20	68.3	68.3	68.3	92	65.9	0	1	90	0.00	29.992 
22:25	68.3	68.3	68.3	92	65.9	0	1	90	0.00	29.992 
22:30	68.1	68.1	68.1	92	65.7	0	0	---	0.00	29.992 
22:35	67.9	67.9	67.9	92	65.5	0	0	---	0.00	29.992 
22:40	67.8	67.8	67.8	92	65.4	0	0	---	0.00	29.992 
22:45	67.6	67.6	67.6	92	65.2	0	0	---	0.00	29.997 
22:50	67.4	67.4	67.4	92	65.0	0	0	---	0.00	29.997 
22:55	67.3	67.3	67.3	92	64.9	0	0	---	0.00	29.997 
23:00	67.1	67.1	67.1	92	64.7	0	0	---	0.00	29.996 
23:05	66.9	66.9	66.9	92	64.5	0	0	---	0.00	29.996 
23:10	66.8	66.8	66.8	93	64.7	0	0	---	0.00	29.996 
23:15	66.6	66.6	66.6	93	64.5	0	0	---	0.00	29.996 
23:20	66.4	66.4	66.4	93	64.3	0	0	---	0.00	29.996 
23:25	66.3	66.3	66.3	93	64.2	0	0	---	0.00	29.996 
23:30	66.3	66.3	66.3	93	64.2	0	1	90	0.00	29.997 
23:35	66.6	66.6	66.6	94	64.8	0	0	---	0.00	29.997 
23:40	66.4	66.4	66.4	94	64.6	0	0	---	0.00	29.997 
23:45	66.3	66.3	66.3	93	64.2	0	0	---	0.00	29.997 
23:50	66.3	66.3	66.3	94	64.5	0	0	---	0.00	29.997 
23:55	66.1	66.1	66.1	94	64.3	0	0	---	0.00	29.997 

CoCoRaHS
IN-AL-39
A2 Web Hosting
Creative Commons License
GoDaddy
search engine by freefind advanced

loaded 2018-11-20 14:22:13 • last modified 2010-11-18 10:43:29
Privacy PolicyDisclaimer
• wx.awcolley.com is powered by PmWiki v.2002016 •
• all content (unless otherwise noted) © 2018 A W Colley